Terminal Aerodrome Forecast
Issued by NWS

Home | Current Version | Previous Version | Text Only | Print | Product List | Glossary On
Versions: 1 2 3 4 5 6 7 8 9 10 11 12 13 14 15 16 17 18 19 20 21 22 23 24
000
FTUS43 KDLH 231139
TAFHIB
TAF
KHIB 231139Z 2312/2412 16004KT P6SM SKC WS020/20035KT
     FM231500 18009KT P6SM SCT150
     FM231700 18011G18KT P6SM SCT150
     FM240100 17008KT P6SM SCT060
     FM240800 18006KT 4SM BR VCSH BKN030 OVC050
     FM241000 19005KT 2SM -RA BR BKN006=

USA.gov is the U.S. government's official web portal to all federal, state and local government web resources and services.